Time;durP1;ratioP1;P1;durP2;ratioP2;P2;SDS_P1;SDS_P2;PMS_P1;PMS_P2;Temp;Humidity;BMP_temperature;BMP_pressure;BME280_temperature;BME280_humidity;BME280_pressure;Samples;Min_cycle;Max_cycle;Signal;HPM_P1;HPM_P2
2021/06/15 00:00:20;;;;;;;33.53;23.40;;;;;;;22.83;64.70;99602.00;3538373;27;20126;-72
2021/06/15 00:02:01;;;;;;;21.13;14.27;;;;;;;22.82;64.75;99608.53;3526351;27;20042;-70
2021/06/15 00:03:42;;;;;;;15.40;11.33;;;;;;;22.81;64.71;99613.16;3525221;28;20062;-70
2021/06/15 00:05:23;;;;;;;19.67;10.73;;;;;;;22.79;64.78;99606.38;3526414;27;20043;-72
2021/06/15 00:07:03;;;;;;;16.87;10.67;;;;;;;22.79;64.69;99611.78;3525270;28;20040;-71
2021/06/15 00:08:44;;;;;;;14.93;10.00;;;;;;;22.77;64.73;99608.53;3538647;27;20031;-70
2021/06/15 00:10:26;;;;;;;14.60;9.63;;;;;;;22.77;64.64;99613.97;3539136;27;20434;-71
2021/06/15 00:12:09;;;;;;;;;;;;;;;22.81;64.41;99607.72;3539670;27;20035;-71
2021/06/15 00:13:49;;;;;;;17.52;10.15;;;;;;;22.76;64.64;99605.00;3534311;27;19949;-71
2021/06/15 00:15:30;;;;;;;16.53;10.17;;;;;;;22.75;64.87;99605.31;3539178;27;20386;-72
2021/06/15 00:17:11;;;;;;;13.23;9.33;;;;;;;22.73;64.82;99607.47;3530377;27;20044;-71
2021/06/15 00:18:54;;;;;;;16.92;9.90;;;;;;;22.72;64.68;99605.84;3535560;27;20035;-71
2021/06/15 00:20:34;;;;;;;16.67;9.27;;;;;;;22.70;64.69;99606.13;3524919;28;20358;-71
2021/06/15 00:22:15;;;;;;;18.43;10.00;;;;;;;22.65;64.90;99595.28;3526149;27;20039;-70
2021/06/15 00:23:56;;;;;;;17.73;9.20;;;;;;;22.69;64.84;99600.97;3536661;27;20080;-71
2021/06/15 00:25:37;;;;;;;16.13;9.83;;;;;;;22.68;64.90;99602.88;3536477;27;20096;-70
2021/06/15 00:27:17;;;;;;;16.50;9.47;;;;;;;22.65;64.69;99601.53;3538117;27;20035;-70
2021/06/15 00:28:58;;;;;;;15.00;9.67;;;;;;;22.65;64.76;99601.53;3532618;27;20067;-70
2021/06/15 00:30:39;;;;;;;15.70;9.30;;;;;;;22.62;65.13;99599.38;3524835;28;20036;-70
2021/06/15 00:32:20;;;;;;;13.27;8.50;;;;;;;22.62;64.96;99602.09;3523825;28;20097;-70
2021/06/15 00:34:01;;;;;;;16.40;10.03;;;;;;;22.63;65.21;99597.44;3531132;27;20065;-70
2021/06/15 00:35:42;;;;;;;16.40;8.65;;;;;;;22.62;65.02;99606.69;3537776;27;20451;-70
2021/06/15 00:37:22;;;;;;;19.53;8.97;;;;;;;22.61;65.18;99605.91;3536635;27;20056;-70
2021/06/15 00:39:03;;;;;;;18.73;9.30;;;;;;;22.61;65.27;99605.91;3524494;27;20031;-72
2021/06/15 00:40:44;;;;;;;13.63;8.35;;;;;;;22.61;65.25;99602.34;3524549;28;20044;-70
2021/06/15 00:42:26;;;;;;;16.45;10.52;;;;;;;22.60;65.14;99606.16;3531700;27;20043;-70
2021/06/15 00:44:11;;;;;;;20.33;10.60;;;;;;;22.59;65.14;99599.13;3538662;27;20039;-70
2021/06/15 00:45:53;;;;;;;22.88;10.25;;;;;;;22.56;64.97;99596.94;3536953;27;20027;-71
2021/06/15 00:47:35;;;;;;;15.80;10.40;;;;;;;22.55;65.32;99601.53;3520716;28;20043;-71
2021/06/15 00:49:23;;;;;;;23.75;10.85;;;;;;;22.56;65.45;99602.34;3525298;27;20032;-70
2021/06/15 00:51:05;;;;;;;20.08;10.02;;;;;;;22.54;65.28;99601.84;3524043;28;20118;-70
2021/06/15 00:52:46;;;;;;;26.25;10.98;;;;;;;22.53;65.18;99602.91;3533829;27;20134;-70
2021/06/15 00:54:27;;;;;;;23.97;11.63;;;;;;;22.50;65.34;99598.84;3528002;27;20046;-71
2021/06/15 00:56:08;;;;;;;16.90;10.80;;;;;;;22.50;65.10;99604.28;3538592;27;20049;-70
2021/06/15 00:57:51;;;;;;;14.45;9.75;;;;;;;22.51;65.36;99603.22;3534467;27;20137;-70
2021/06/15 00:59:31;;;;;;;27.33;11.15;;;;;;;22.50;65.44;99603.47;3533174;27;20061;-70
2021/06/15 01:01:12;;;;;;;20.70;10.43;;;;;;;22.49;65.54;99597.22;3532018;27;20066;-70
2021/06/15 01:02:56;;;;;;;22.70;10.75;;;;;;;22.50;65.54;99604.28;3535005;27;20523;-69
2021/06/15 01:04:39;;;;;;;23.33;11.32;;;;;;;22.50;65.60;99598.84;3534818;27;20035;-70
2021/06/15 01:06:31;;;;;;;33.97;12.10;;;;;;;22.51;65.83;99600.50;3535179;27;20038;-70
2021/06/15 01:08:51;;;;;;;20.23;9.25;;;;;;;22.55;65.67;99604.25;3535420;27;20288;-71
2021/06/15 01:10:42;;;;;;;25.65;10.00;;;;;;;22.55;65.45;99600.75;3484506;28;20524;-70
2021/06/15 01:12:42;;;;;;;35.00;11.90;;;;;;;22.57;65.63;99604.00;3521544;28;20047;-70
2021/06/15 01:14:42;;;;;;;32.85;11.40;;;;;;;22.56;65.76;99595.03;3528132;27;20037;-72
2021/06/15 01:16:35;;;;;;;34.53;12.50;;;;;;;22.54;65.64;99604.56;3513664;28;20036;-73
2021/06/15 01:18:21;;;;;;;34.85;11.40;;;;;;;22.51;65.91;99595.06;3534334;27;20046;-70
2021/06/15 01:20:23;;;;;;;31.25;11.18;;;;;;;22.56;65.71;99603.19;3522379;28;20085;-71
2021/06/15 01:22:14;;;;;;;32.83;11.57;;;;;;;22.54;65.81;99605.38;3523264;28;20080;-71
2021/06/15 01:24:11;;;;;;;35.20;12.52;;;;;;;22.56;65.78;99594.22;3527406;27;20541;-72
2021/06/15 01:26:24;;;;;;;38.95;12.40;;;;;;;22.59;65.80;99601.84;3519353;28;20054;-71
2021/06/15 01:28:17;;;;;;;28.27;10.95;;;;;;;22.58;65.63;99594.75;3528123;27;20185;-71
2021/06/15 01:30:03;;;;;;;26.25;11.77;;;;;;;22.58;65.27;99592.84;3536148;27;20043;-70
2021/06/15 01:31:49;;;;;;;31.15;11.35;;;;;;;22.60;65.86;99593.38;3514079;28;20050;-71
2021/06/15 01:33:38;;;;;;;22.95;10.15;;;;;;;22.59;65.44;99586.34;3520542;28;20047;-71
2021/06/15 01:35:20;;;;;;;30.40;11.60;;;;;;;22.61;65.53;99589.59;3513000;28;20132;-71
2021/06/15 01:37:13;;;;;;;26.30;11.43;;;;;;;22.65;65.52;99596.09;3530298;28;20062;-70
2021/06/15 01:38:58;;;;;;;22.17;11.13;;;;;;;22.63;65.50;99592.81;3534771;28;20049;-71
2021/06/15 01:40:58;;;;;;;27.60;10.68;;;;;;;22.67;65.69;99593.09;3522749;28;20072;-70
2021/06/15 01:42:47;;;;;;;30.02;10.75;;;;;;;22.66;65.72;99599.59;3536699;28;20472;-71
2021/06/15 01:44:28;;;;;;;40.85;12.18;;;;;;;22.66;65.76;99591.47;3533285;28;20039;-70
2021/06/15 01:46:12;;;;;;;22.88;10.82;;;;;;;22.68;65.72;99591.19;3534018;28;20636;-70
2021/06/15 01:48:06;;;;;;;19.05;10.93;;;;;;;22.72;65.74;99592.25;3534115;28;20039;-70
2021/06/15 01:49:51;;;;;;;24.70;11.65;;;;;;;22.73;65.61;99591.19;3521985;28;20058;-70
2021/06/15 01:51:38;;;;;;;21.70;11.18;;;;;;;22.77;65.63;99586.78;3534905;28;20039;-71
2021/06/15 01:53:20;;;;;;;26.08;11.35;;;;;;;22.79;65.54;99598.22;3535555;27;20061;-70
2021/06/15 01:55:06;;;;;;;26.60;11.52;;;;;;;22.80;65.66;99589.78;3522766;28;20055;-71
2021/06/15 01:56:56;;;;;;;24.00;10.60;;;;;;;22.82;65.65;99584.06;3533854;27;20088;-70
2021/06/15 01:58:41;;;;;;;29.70;11.23;;;;;;;22.83;65.66;99591.16;3523094;28;20096;-70
2021/06/15 02:00:22;;;;;;;22.52;11.10;;;;;;;22.83;65.74;99586.50;3518999;28;20168;-72
2021/06/15 02:02:09;;;;;;;22.05;11.02;;;;;;;22.86;65.78;99596.00;3518828;28;20095;-71
2021/06/15 02:03:52;;;;;;;23.40;11.25;;;;;;;22.86;65.84;99588.66;3519018;28;20487;-70
2021/06/15 02:05:39;;;;;;;23.83;11.57;;;;;;;22.89;65.64;99592.72;3535234;27;20046;-71
2021/06/15 02:07:31;;;;;;;168.73;115.25;;;;;;;22.94;65.45;99592.72;3523005;28;20043;-72
2021/06/15 02:09:14;;;;;;;87.00;59.10;;;;;;;22.96;65.35;99587.00;3530834;27;20138;-69
2021/06/15 02:11:08;;;;;;;39.92;25.15;;;;;;;22.98;65.26;99582.16;3525687;28;20051;-71
2021/06/15 02:13:08;;;;;;;32.05;17.02;;;;;;;22.99;65.38;99589.19;3523177;28;20104;-71
2021/06/15 02:14:49;;;;;;;25.23;15.23;;;;;;;22.99;65.52;99579.13;3534820;27;20046;-71
2021/06/15 02:17:00;;;;;;;22.02;13.43;;;;;;;23.00;65.40;99574.50;3483981;28;20451;-71
2021/06/15 02:18:57;;;;;;;30.25;15.45;;;;;;;23.01;65.30;99576.94;3518679;28;20047;-71
2021/06/15 02:20:49;;;;;;;29.95;15.30;;;;;;;23.02;64.93;99578.56;3538437;27;20043;-71
2021/06/15 02:22:31;;;;;;;23.90;13.40;;;;;;;23.03;64.70;99579.41;3536678;27;20043;-71
2021/06/15 02:24:12;;;;;;;24.55;15.07;;;;;;;23.05;64.61;99571.75;3529942;27;20051;-71
2021/06/15 02:26:00;;;;;;;25.00;14.55;;;;;;;23.05;64.35;99582.63;3515082;28;20134;-72
2021/06/15 02:27:46;;;;;;;31.55;15.18;;;;;;;23.06;64.42;99581.56;3536740;27;20046;-72
2021/06/15 02:29:28;;;;;;;36.15;24.20;;;;;;;23.06;64.59;99574.22;3523119;28;20177;-72
2021/06/15 02:31:18;;;;;;;41.78;33.45;;;;;;;23.03;64.48;99569.34;3521088;28;20043;-70
2021/06/15 02:33:10;;;;;;;27.25;19.65;;;;;;;23.07;64.57;99583.97;3525583;28;20126;-72
2021/06/15 02:34:52;;;;;;;21.92;16.35;;;;;;;23.06;64.32;99578.84;3528820;27;20032;-71
2021/06/15 02:36:37;;;;;;;21.13;14.27;;;;;;;23.05;64.45;99583.47;3523962;28;20054;-71
2021/06/15 02:38:32;;;;;;;18.58;13.40;;;;;;;23.07;64.67;99586.69;3536199;27;20130;-70
2021/06/15 02:40:14;;;;;;;19.23;12.70;;;;;;;23.06;64.48;99582.38;3536838;27;20039;-71
2021/06/15 02:42:00;;;;;;;15.45;12.20;;;;;;;23.07;64.62;99580.44;3524809;28;20089;-71
2021/06/15 02:43:42;;;;;;;22.08;11.98;;;;;;;23.08;64.55;99580.19;3535277;27;20042;-71
2021/06/15 02:45:28;;;;;;;15.65;11.15;;;;;;;23.07;64.49;99578.53;3520539;28;20517;-71
2021/06/15 02:47:10;;;;;;;18.55;12.45;;;;;;;23.08;64.40;99582.91;3509029;28;20040;-71
2021/06/15 02:48:53;;;;;;;87.05;72.68;;;;;;;23.08;64.46;99582.09;3506076;28;20040;-71
2021/06/15 02:50:35;;;;;;;91.75;78.72;;;;;;;23.08;64.31;99582.91;3520205;27;20053;-72
2021/06/15 02:52:34;;;;;;;48.60;35.15;;;;;;;23.13;64.46;99592.09;3550726;27;20144;-71
2021/06/15 02:54:22;;;;;;;28.70;20.40;;;;;;;23.15;64.30;99585.28;3530702;27;20039;-71
2021/06/15 02:56:14;;;;;;;28.38;17.10;;;;;;;23.18;63.98;99586.66;3525112;28;20584;-71
2021/06/15 02:57:55;;;;;;;23.52;15.80;;;;;;;23.21;63.96;99588.81;3536137;27;20047;-71
2021/06/15 02:59:37;;;;;;;18.70;12.93;;;;;;;23.24;63.91;99580.09;3524865;28;20075;-70
2021/06/15 03:01:18;;;;;;;18.67;13.15;;;;;;;23.27;63.58;99579.53;3516298;28;20697;-70
2021/06/15 03:03:06;;;;;;;21.95;14.90;;;;;;;23.30;63.46;99579.78;3535042;27;20054;-70
2021/06/15 03:04:47;;;;;;;24.02;16.02;;;;;;;23.38;63.46;99583.81;3534898;27;20077;-70
2021/06/15 03:06:29;;;;;;;17.50;13.75;;;;;;;23.44;63.23;99582.69;3531840;27;20036;-70
2021/06/15 03:08:10;;;;;;;23.23;12.93;;;;;;;23.50;62.72;99581.56;3533830;27;20131;-71
2021/06/15 03:09:52;;;;;;;20.52;13.82;;;;;;;23.55;62.88;99574.47;3539018;27;20047;-71
2021/06/15 03:11:50;;;;;;;16.60;13.70;;;;;;;23.62;62.53;99569.50;3535692;27;20093;-72
2021/06/15 03:14:04;;;;;;;16.45;13.45;;;;;;;23.72;62.23;99574.88;3515388;28;20509;-71
2021/06/15 03:15:50;;;;;;;14.82;11.73;;;;;;;23.76;61.79;99575.94;3507614;28;20112;-70
2021/06/15 03:17:35;;;;;;;16.45;11.90;;;;;;;23.78;61.69;99572.97;3534115;27;20372;-70
2021/06/15 03:19:26;;;;;;;16.50;11.57;;;;;;;23.85;61.31;99576.97;3536262;27;20074;-72
2021/06/15 03:21:09;;;;;;;16.00;11.32;;;;;;;23.88;61.02;99573.69;3537540;27;20051;-69
2021/06/15 03:23:08;;;;;;;15.00;11.60;;;;;;;23.92;60.76;99580.16;3535373;27;20043;-70
2021/06/15 03:24:54;;;;;;;14.23;10.38;;;;;;;23.94;60.78;99583.41;3514681;28;20036;-70
2021/06/15 03:27:01;;;;;;;15.07;10.00;;;;;;;23.99;60.70;99581.75;3519815;28;20039;-70
2021/06/15 03:28:47;;;;;;;14.25;9.88;;;;;;;23.98;60.14;99577.41;3533939;27;20035;-70
2021/06/15 03:30:29;;;;;;;14.05;9.18;;;;;;;24.00;59.92;99580.66;3528994;27;20123;-71
2021/06/15 03:32:11;;;;;;;;;;;;;;;24.06;59.94;99585.78;3539999;27;20047;-72
2021/06/15 03:33:53;;;;;;;;;;;;;;;24.08;59.92;99588.19;3538804;27;19915;-72
2021/06/15 03:35:38;;;;;;;11.13;7.82;;;;;;;24.02;59.28;99589.34;3519093;28;20550;-71
2021/06/15 03:37:23;;;;;;;7.32;6.43;;;;;;;24.01;59.25;99596.72;3524019;27;20055;-70
2021/06/15 03:39:05;;;;;;;7.35;6.25;;;;;;;24.02;59.04;99589.34;3523065;28;20553;-71
2021/06/15 03:40:51;;;;;;;9.70;6.80;;;;;;;24.01;59.04;99582.25;3536116;27;20035;-71
2021/06/15 03:42:38;;;;;;;9.57;7.22;;;;;;;24.06;58.76;99587.66;3536333;27;20046;-72
2021/06/15 03:44:20;;;;;;;8.75;6.95;;;;;;;24.09;59.25;99581.66;3530721;27;20522;-72
2021/06/15 03:46:04;;;;;;;10.90;7.03;;;;;;;24.14;58.82;99581.63;3525330;27;20040;-72
2021/06/15 03:47:47;;;;;;;9.68;6.35;;;;;;;24.17;58.81;99581.03;3532969;27;20522;-72
2021/06/15 03:49:29;;;;;;;8.65;6.18;;;;;;;24.24;59.00;99583.41;3525973;27;20044;-73
2021/06/15 03:51:17;;;;;;;8.98;6.18;;;;;;;24.28;58.72;99585.28;3524133;28;20074;-72
2021/06/15 03:52:59;;;;;;;7.88;6.30;;;;;;;24.30;58.53;99580.34;3535617;27;20043;-71
2021/06/15 03:54:42;;;;;;;11.32;6.25;;;;;;;24.36;58.29;99584.63;3535646;27;20176;-71
2021/06/15 03:56:23;;;;;;;11.15;6.35;;;;;;;24.40;58.12;99584.09;3538524;27;20047;-71
2021/06/15 03:58:07;;;;;;;7.77;6.37;;;;;;;24.41;58.07;99581.06;3533426;27;20141;-71
2021/06/15 03:59:48;;;;;;;9.43;5.32;;;;;;;24.42;58.08;99588.16;3525890;27;20031;-72
2021/06/15 04:01:30;;;;;;;7.78;6.15;;;;;;;24.43;57.78;99584.31;3534111;27;20129;-72
2021/06/15 04:03:13;;;;;;;7.00;5.93;;;;;;;24.46;57.86;99581.03;3527916;27;20554;-72
2021/06/15 04:04:54;;;;;;;7.38;6.65;;;;;;;24.50;57.74;99584.81;3521952;28;20597;-72
2021/06/15 04:06:35;;;;;;;9.20;6.50;;;;;;;24.53;57.56;99569.81;3537057;27;20038;-72
2021/06/15 04:08:16;;;;;;;9.23;6.55;;;;;;;24.55;57.43;99570.31;3537485;27;20077;-72
2021/06/15 04:09:57;;;;;;;7.53;6.43;;;;;;;24.55;57.49;99571.13;3535969;27;20517;-70
2021/06/15 04:11:40;;;;;;;7.33;5.97;;;;;;;24.62;57.38;99583.59;3523033;28;20046;-70
2021/06/15 04:13:21;;;;;;;9.35;6.88;;;;;;;24.64;57.39;99582.19;3519071;28;20047;-71
2021/06/15 04:15:04;;;;;;;9.60;6.32;;;;;;;24.69;57.07;99571.22;3528241;27;20039;-71
2021/06/15 04:16:46;;;;;;;6.40;5.82;;;;;;;24.72;57.20;99578.81;3536607;27;20115;-70
2021/06/15 04:18:27;;;;;;;;;;;;;;;24.80;57.00;99580.91;3533682;27;20517;-72
2021/06/15 04:20:09;;;;;;;6.13;5.53;;;;;;;24.80;56.88;99578.16;3532959;27;19918;-71
2021/06/15 04:21:52;;;;;;;6.93;5.78;;;;;;;24.84;56.80;99583.06;3533452;27;20424;-72
2021/06/15 04:23:43;;;;;;;7.35;6.68;;;;;;;24.88;56.90;99584.91;3534811;27;20102;-71
2021/06/15 04:25:27;;;;;;;8.38;5.70;;;;;;;24.91;56.60;99580.78;3523306;28;20557;-71
2021/06/15 04:27:08;;;;;;;9.13;5.90;;;;;;;24.92;56.65;99593.31;3532253;27;20134;-71
2021/06/15 04:28:49;;;;;;;7.73;6.07;;;;;;;24.94;56.48;99591.94;3521826;28;20044;-71
2021/06/15 04:30:30;;;;;;;10.98;6.32;;;;;;;24.92;56.16;99582.41;3532345;27;20125;-71
2021/06/15 04:32:11;;;;;;;6.72;6.00;;;;;;;24.98;55.86;99586.69;3537957;27;20562;-72
2021/06/15 04:33:52;;;;;;;13.20;6.20;;;;;;;24.97;56.23;99588.59;3529133;27;20077;-71
2021/06/15 04:35:41;;;;;;;6.85;5.72;;;;;;;24.98;56.10;99584.75;3520606;28;20035;-72
2021/06/15 04:37:22;;;;;;;8.85;6.30;;;;;;;25.03;56.08;99584.69;3523217;27;20056;-72
2021/06/15 04:39:07;;;;;;;9.52;6.38;;;;;;;25.10;56.08;99586.28;3532254;27;20509;-72
2021/06/15 04:40:51;;;;;;;8.25;6.30;;;;;;;25.12;56.03;99595.78;3534824;27;20486;-71
2021/06/15 04:42:58;;;;;;;7.65;6.38;;;;;;;25.16;55.91;99585.13;3534472;27;20031;-70
2021/06/15 04:44:42;;;;;;;6.85;6.22;;;;;;;25.18;55.66;99594.63;3538205;27;20309;-72
2021/06/15 04:46:53;;;;;;;8.60;6.72;;;;;;;25.24;55.64;99590.72;3534131;27;20127;-70
2021/06/15 04:48:37;;;;;;;15.45;6.95;;;;;;;25.24;55.37;99593.44;3533041;27;20073;-72
2021/06/15 04:50:20;;;;;;;6.55;5.95;;;;;;;25.24;55.42;99587.97;3524281;28;20043;-71
2021/06/15 04:52:03;;;;;;;7.45;6.57;;;;;;;25.28;55.37;99588.22;3523405;28;20043;-72
2021/06/15 04:53:44;;;;;;;8.13;6.55;;;;;;;25.28;55.51;99577.31;3536722;27;20058;-71
2021/06/15 04:55:32;;;;;;;8.75;6.68;;;;;;;25.33;55.01;99579.16;3534560;27;20119;-71
2021/06/15 04:57:14;;;;;;;13.05;6.28;;;;;;;25.33;55.15;99579.16;3536341;27;20081;-71
2021/06/15 04:58:57;;;;;;;8.18;6.25;;;;;;;25.37;55.05;99569.25;3531594;27;20035;-72
2021/06/15 05:00:39;;;;;;;5.88;5.43;;;;;;;25.42;54.93;99580.91;3527053;27;20035;-71
2021/06/15 05:02:20;;;;;;;10.57;6.78;;;;;;;25.47;54.90;99580.03;3536778;27;20444;-70
2021/06/15 05:04:03;;;;;;;10.60;6.53;;;;;;;25.48;54.83;99576.22;3535037;27;20437;-71
2021/06/15 05:05:45;;;;;;;7.95;6.05;;;;;;;25.54;54.76;99580.47;3538539;27;20051;-71
2021/06/15 05:07:26;;;;;;;7.65;6.20;;;;;;;25.55;55.01;99571.16;3535032;27;20071;-71
2021/06/15 05:09:08;;;;;;;9.38;6.65;;;;;;;25.61;54.55;99578.19;3537808;27;20046;-72
2021/06/15 05:10:49;;;;;;;;;;;;;;;25.71;54.94;99584.56;3536414;27;20091;-71
2021/06/15 05:12:34;;;;;;;11.18;6.00;;;;;;;25.68;54.61;99584.06;3524669;27;20371;-72
2021/06/15 05:14:16;;;;;;;6.57;5.75;;;;;;;25.73;54.79;99585.09;3531686;27;20506;-71
2021/06/15 05:15:57;;;;;;;7.35;5.65;;;;;;;25.74;54.59;99583.97;3532233;27;20048;-71
2021/06/15 05:17:47;;;;;;;9.05;6.03;;;;;;;25.81;54.28;99574.28;3522927;27;20047;-71
2021/06/15 05:19:28;;;;;;;6.85;5.47;;;;;;;25.85;54.39;99585.47;3534867;27;20043;-71
2021/06/15 05:21:18;;;;;;;9.17;6.07;;;;;;;25.89;54.56;99584.59;3536915;27;20046;-71
2021/06/15 05:23:18;;;;;;;11.45;5.75;;;;;;;25.97;54.14;99579.53;3507206;28;20036;-71
2021/06/15 05:25:02;;;;;;;6.40;5.68;;;;;;;26.00;54.26;99579.75;3521675;28;20070;-70
2021/06/15 05:26:43;;;;;;;6.60;5.00;;;;;;;26.03;54.08;99576.41;3504677;28;20523;-70
2021/06/15 05:28:23;;;;;;;7.57;6.17;;;;;;;26.06;53.91;99573.09;3524063;27;20035;-71
2021/06/15 05:30:06;;;;;;;6.80;5.90;;;;;;;26.13;53.90;99566.44;3536137;27;20042;-71
2021/06/15 05:31:46;;;;;;;6.38;5.78;;;;;;;26.17;53.36;99564.69;3534357;27;20135;-70
2021/06/15 05:33:28;;;;;;;;;;;;;;;26.26;53.58;99573.84;3537172;27;20509;-71
2021/06/15 05:35:09;;;;;;;6.55;5.15;;;;;;;26.24;53.24;99570.59;3536621;28;19927;-71
2021/06/15 05:36:50;;;;;;;7.60;5.68;;;;;;;26.29;53.22;99567.75;3536999;27;20066;-74
2021/06/15 05:38:31;;;;;;;6.43;5.73;;;;;;;26.30;53.06;99564.72;3537632;27;20498;-72
2021/06/15 05:40:13;;;;;;;7.73;5.57;;;;;;;26.39;53.28;99564.84;3537584;27;20027;-70
2021/06/15 05:41:53;;;;;;;12.10;6.20;;;;;;;26.42;52.72;99566.97;3534438;27;20036;-71
2021/06/15 05:43:34;;;;;;;6.07;5.57;;;;;;;26.46;52.88;99570.72;3521805;28;20489;-72
2021/06/15 05:45:16;;;;;;;6.33;5.60;;;;;;;26.50;52.40;99566.25;3510963;28;20059;-73
2021/06/15 05:46:56;;;;;;;6.18;5.57;;;;;;;26.56;52.40;99566.19;3519016;28;20657;-72
2021/06/15 05:48:37;;;;;;;6.23;5.33;;;;;;;26.60;52.38;99561.75;3520265;28;20039;-72
2021/06/15 05:50:18;;;;;;;7.03;5.47;;;;;;;26.65;52.47;99562.44;3510114;28;20111;-71
2021/06/15 05:52:02;;;;;;;5.77;5.07;;;;;;;26.67;52.51;99562.94;3522344;28;20506;-73
2021/06/15 05:53:44;;;;;;;6.60;5.47;;;;;;;26.73;52.38;99559.00;3522175;28;20043;-71
2021/06/15 05:55:25;;;;;;;8.98;5.75;;;;;;;26.78;52.07;99560.00;3510366;28;20047;-71
2021/06/15 05:57:06;;;;;;;9.83;5.10;;;;;;;26.82;52.41;99550.88;3510403;28;20040;-71
2021/06/15 05:58:47;;;;;;;6.30;5.03;;;;;;;26.87;52.38;99556.22;3511278;28;20050;-73
2021/06/15 06:00:28;;;;;;;10.10;5.67;;;;;;;26.91;52.28;99562.72;3518905;28;20048;-72
2021/06/15 06:02:09;;;;;;;9.02;5.25;;;;;;;26.93;51.75;99548.75;3522365;28;20424;-73
2021/06/15 06:03:58;;;;;;;10.75;5.75;;;;;;;26.95;51.92;99550.06;3523788;28;20047;-71
2021/06/15 06:09:40;;;;;;;15.75;6.13;;;;;;;27.06;51.42;99542.44;3522084;28;20043;-70
2021/06/15 06:11:21;;;;;;;8.23;5.18;;;;;;;27.14;51.28;99544.44;3511139;28;20048;-71
2021/06/15 06:13:04;;;;;;;5.97;5.27;;;;;;;27.18;51.21;99547.38;3523217;28;20127;-72
2021/06/15 06:14:45;;;;;;;11.10;5.30;;;;;;;27.19;50.60;99543.53;3522375;28;20039;-71
2021/06/15 06:16:27;;;;;;;11.57;5.47;;;;;;;27.25;50.95;99539.56;3514858;28;20050;-72
2021/06/15 06:18:10;;;;;;;9.20;5.22;;;;;;;27.30;50.93;99542.19;3522706;28;20046;-72
2021/06/15 06:19:51;;;;;;;11.88;5.43;;;;;;;27.34;50.79;99537.72;3522777;28;20447;-70
2021/06/15 06:21:34;;;;;;;9.50;5.07;;;;;;;27.42;50.91;99541.63;3516779;28;20044;-72
2021/06/15 06:23:15;;;;;;;6.18;4.85;;;;;;;27.45;50.32;99548.41;3514361;28;20036;-73
2021/06/15 06:24:56;;;;;;;9.23;5.07;;;;;;;27.41;50.34;99538.06;3509745;28;20055;-72
2021/06/15 06:26:37;;;;;;;11.17;5.90;;;;;;;27.36;50.76;99534.66;3510043;28;20469;-72
2021/06/15 06:28:17;;;;;;;6.28;5.07;;;;;;;27.35;50.81;99544.78;3518478;28;20418;-71
2021/06/15 06:30:00;;;;;;;5.63;4.73;;;;;;;27.35;50.41;99539.31;3522972;28;20032;-74
2021/06/15 06:31:41;;;;;;;7.30;5.32;;;;;;;27.40;50.37;99541.94;3523190;28;20084;-71
2021/06/15 06:33:22;;;;;;;13.40;5.20;;;;;;;27.41;50.26;99540.81;3521117;28;21513;-72
2021/06/15 06:35:04;;;;;;;5.85;5.20;;;;;;;27.38;50.00;99535.97;3511898;28;20036;-72
2021/06/15 06:36:47;;;;;;;6.55;5.90;;;;;;;27.33;50.01;99541.56;3509184;28;20478;-72
2021/06/15 06:38:30;;;;;;;11.57;6.18;;;;;;;27.27;49.70;99533.78;3508283;28;20511;-70
2021/06/15 06:40:11;;;;;;;6.38;5.65;;;;;;;27.31;49.37;99535.59;3511776;28;20093;-71
2021/06/15 06:41:53;;;;;;;9.18;5.22;;;;;;;27.41;49.52;99529.84;3516025;28;20465;-71
2021/06/15 06:43:36;;;;;;;6.37;5.43;;;;;;;27.57;49.61;99533.06;3512923;28;20115;-71
2021/06/15 06:45:19;;;;;;;9.32;5.78;;;;;;;27.75;49.06;99524.94;3511067;28;20059;-73
2021/06/15 06:47:00;;;;;;;10.23;4.65;;;;;;;27.90;48.89;99527.31;3524177;27;20036;-72
2021/06/15 06:48:41;;;;;;;7.35;4.85;;;;;;;28.05;48.76;99529.66;3513355;27;20066;-70
2021/06/15 06:50:22;;;;;;;7.22;5.53;;;;;;;28.19;48.73;99521.34;3511951;28;20036;-73
2021/06/15 06:52:04;;;;;;;11.57;5.50;;;;;;;28.30;48.49;99523.81;3514594;28;20047;-75
2021/06/15 06:53:46;;;;;;;9.75;4.80;;;;;;;28.37;48.90;99518.66;3510812;28;20039;-72
2021/06/15 06:55:29;;;;;;;9.70;4.93;;;;;;;28.46;48.82;99528.56;3511654;28;20111;-71
2021/06/15 06:57:10;;;;;;;7.95;5.25;;;;;;;28.57;48.23;99523.59;3510887;28;20040;-70
2021/06/15 06:58:53;;;;;;;6.72;5.32;;;;;;;28.70;48.73;99528.13;3510152;28;20032;-72
2021/06/15 07:00:34;;;;;;;5.75;4.60;;;;;;;28.83;48.43;99520.09;3511300;28;20036;-72
2021/06/15 07:02:16;;;;;;;7.18;4.97;;;;;;;28.96;47.85;99524.63;3510879;28;20130;-72
2021/06/15 07:03:56;;;;;;;14.30;5.73;;;;;;;29.08;47.49;99524.84;3510648;28;20139;-73
2021/06/15 07:05:37;;;;;;;7.83;5.50;;;;;;;29.18;47.76;99517.41;3511066;28;20481;-71
2021/06/15 07:07:18;;;;;;;8.73;5.93;;;;;;;29.32;47.25;99520.78;3511471;28;20082;-72
2021/06/15 07:08:59;;;;;;;5.40;4.67;;;;;;;29.41;47.10;99523.56;3522869;28;20120;-71
2021/06/15 07:10:41;;;;;;;7.03;5.10;;;;;;;29.51;46.63;99526.75;3511015;28;20522;-73
2021/06/15 07:12:23;;;;;;;7.07;5.05;;;;;;;29.61;46.67;99522.88;3511459;28;20437;-71
2021/06/15 07:14:05;;;;;;;6.90;5.67;;;;;;;29.69;46.31;99526.78;3511445;28;20089;-72
2021/06/15 07:15:46;;;;;;;5.90;5.18;;;;;;;29.77;46.59;99520.44;3515159;28;20071;-73
2021/06/15 07:17:29;;;;;;;5.43;4.93;;;;;;;29.82;45.78;99516.69;3514817;28;20044;-74
2021/06/15 07:19:10;;;;;;;7.20;4.57;;;;;;;29.92;45.67;99511.69;3510976;28;20159;-74
2021/06/15 07:20:51;;;;;;;13.00;5.23;;;;;;;29.94;45.74;99517.63;3516550;28;20098;-71
2021/06/15 07:22:32;;;;;;;;;;;;;;;29.99;46.13;99517.44;3511352;28;20035;-72
2021/06/15 07:24:14;;;;;;;10.35;6.03;;;;;;;29.81;46.26;99520.59;3517331;28;19920;-73
2021/06/15 07:25:55;;;;;;;14.02;5.60;;;;;;;29.69;46.38;99507.53;3520668;28;20563;-73
2021/06/15 07:27:37;;;;;;;8.60;6.03;;;;;;;29.54;46.40;99512.38;3520617;28;20032;-73
2021/06/15 07:29:17;;;;;;;12.68;6.63;;;;;;;29.42;46.46;99514.16;3521392;28;20036;-73
2021/06/15 07:30:58;;;;;;;10.37;6.30;;;;;;;29.37;46.33;99517.88;3521220;28;20038;-73
2021/06/15 07:32:39;;;;;;;12.13;5.97;;;;;;;29.44;46.52;99511.91;3511182;28;20112;-72
2021/06/15 07:34:21;;;;;;;9.32;5.55;;;;;;;29.56;46.74;99506.56;3510168;28;20032;-73
2021/06/15 07:36:03;;;;;;;15.60;6.22;;;;;;;29.68;46.08;99508.66;3512386;28;20041;-71
2021/06/15 07:37:45;;;;;;;8.65;5.80;;;;;;;29.74;46.44;99510.09;3523278;28;20066;-73
2021/06/15 07:39:25;;;;;;;12.30;6.10;;;;;;;29.83;45.91;99501.84;3523954;28;20040;-73
2021/06/15 07:41:06;;;;;;;11.13;6.25;;;;;;;29.94;45.77;99497.59;3522947;28;20490;-73
2021/06/15 07:42:48;;;;;;;10.38;6.10;;;;;;;30.06;45.43;99505.16;3522398;28;20039;-73
2021/06/15 07:44:29;;;;;;;9.18;5.15;;;;;;;30.19;45.09;99504.13;3522778;28;20055;-73
2021/06/15 07:46:09;;;;;;;8.00;5.28;;;;;;;30.28;45.16;99496.66;3522809;28;20039;-73
2021/06/15 07:47:50;;;;;;;7.75;4.95;;;;;;;30.38;45.15;99504.53;3522901;28;20039;-74
2021/06/15 07:49:32;;;;;;;12.27;4.32;;;;;;;30.50;44.76;99494.78;3518983;28;20042;-72
2021/06/15 07:51:15;;;;;;;15.30;5.35;;;;;;;30.62;44.59;99492.13;3521662;28;20039;-70
2021/06/15 07:52:56;;;;;;;11.90;4.93;;;;;;;30.76;44.48;99495.44;3513812;28;20040;-71
2021/06/15 07:54:37;;;;;;;6.53;5.22;;;;;;;30.89;44.17;99495.53;3513766;28;20084;-72
2021/06/15 07:56:18;;;;;;;10.20;5.97;;;;;;;30.98;43.88;99490.75;3524821;28;20558;-71
2021/06/15 07:57:59;;;;;;;;;;;;;;;31.13;43.78;99490.16;3524401;28;20043;-72
2021/06/15 07:59:40;;;;;;;7.53;5.30;;;;;;;31.14;43.25;99489.03;3520293;28;19926;-71
2021/06/15 08:01:20;;;;;;;10.53;5.37;;;;;;;31.17;42.88;99488.34;3523581;28;20044;-71
2021/06/15 08:03:02;;;;;;;8.70;4.83;;;;;;;31.21;42.58;99486.53;3524555;28;20085;-72
2021/06/15 08:04:44;;;;;;;5.78;4.28;;;;;;;31.28;42.17;99489.53;3524930;28;20281;-71
2021/06/15 08:06:26;;;;;;;6.28;4.00;;;;;;;31.41;41.45;99484.09;3525168;28;20104;-74
2021/06/15 08:08:07;;;;;;;7.05;3.97;;;;;;;31.52;40.94;99479.75;3505886;28;22323;-71
2021/06/15 08:09:48;;;;;;;4.55;4.13;;;;;;;31.67;40.65;99478.31;3537558;27;20085;-72